createdAt,value
2022-12-24T00:01:24.189Z,37.51
2022-12-24T00:07:54.563Z,37.55
2022-12-24T00:14:21.661Z,37.67
2022-12-24T00:20:50.094Z,37.59
2022-12-24T00:27:20.271Z,37.43
2022-12-24T00:33:49.714Z,37.62
2022-12-24T00:40:24.247Z,37.55
2022-12-24T00:46:46.567Z,37.64
2022-12-24T00:53:09.644Z,37.69
2022-12-24T00:59:35.286Z,37.76
2022-12-24T01:05:58.348Z,37.76
2022-12-24T01:12:25.653Z,37.7
2022-12-24T01:18:52.017Z,37.68
2022-12-24T01:25:31.876Z,37.59
2022-12-24T01:32:02.609Z,37.63
2022-12-24T01:38:30.580Z,37.73
2022-12-24T01:44:59.318Z,37.72
2022-12-24T01:51:53.124Z,37.59
2022-12-24T01:58:40.316Z,37.54
2022-12-24T02:05:18.423Z,37.59
2022-12-24T02:11:52.103Z,37.57
2022-12-24T02:18:48.193Z,37.63
2022-12-24T02:25:39.341Z,37.67
2022-12-24T02:32:47.180Z,37.71
2022-12-24T02:39:49.729Z,37.7
2022-12-24T02:46:37.752Z,37.65
2022-12-24T02:53:21.303Z,37.7
2022-12-24T03:00:02.721Z,37.61
2022-12-24T03:07:05.743Z,37.41
2022-12-24T03:14:04.297Z,37.62
2022-12-24T03:20:45.763Z,37.52
2022-12-24T03:27:21.711Z,37.13
2022-12-24T03:33:57.765Z,37.52
2022-12-24T03:40:21.243Z,37.5
2022-12-24T03:46:43.696Z,37.42
2022-12-24T03:53:09.727Z,37.44
2022-12-24T03:59:31.510Z,37.56
2022-12-24T04:05:57.242Z,37.59
2022-12-24T04:12:29.737Z,37.59
2022-12-24T04:19:09.377Z,37.51
2022-12-24T04:25:37.188Z,37.46
2022-12-24T04:32:03.399Z,37.48
2022-12-24T04:38:31.457Z,37.48
2022-12-24T04:44:58.196Z,37.41
2022-12-24T04:51:24.657Z,37.38
2022-12-24T04:57:55.377Z,37.4
2022-12-24T05:04:26.361Z,37.47
2022-12-24T05:10:49.352Z,37.46
2022-12-24T05:17:27.351Z,36.32
2022-12-24T05:24:01.361Z,35.27
2022-12-24T05:30:24.415Z,34.92
2022-12-24T05:36:48.425Z,34.97
2022-12-24T05:43:20.297Z,35.32
2022-12-24T05:49:56.698Z,35.35
2022-12-24T05:56:23.212Z,35.53
2022-12-24T06:02:50.572Z,35.63
2022-12-24T06:09:13.777Z,35.65
2022-12-24T06:15:43.843Z,35.73
2022-12-24T06:22:15.955Z,36.06
2022-12-24T06:28:45.803Z,36.07
2022-12-24T06:35:17.311Z,36.29
2022-12-24T06:41:43.303Z,36.39
2022-12-24T06:48:15.860Z,36.63
2022-12-24T06:54:40.734Z,36.82
2022-12-24T07:01:05.443Z,36.83
2022-12-24T07:07:39.948Z,36.81
2022-12-24T07:14:04.323Z,36.97
2022-12-24T07:20:33.346Z,37.09
2022-12-24T07:26:57.388Z,37.11
2022-12-24T07:33:25.834Z,37.09
2022-12-24T07:39:56.431Z,37.28
2022-12-24T07:46:19.454Z,37.36
2022-12-24T07:52:47.530Z,37.22
2022-12-24T07:59:17.428Z,37.18
2022-12-24T08:05:47.481Z,37.08
2022-12-24T08:12:09.397Z,37.12
2022-12-24T08:18:36.440Z,37.05
2022-12-24T08:24:58.645Z,37.03
2022-12-24T08:31:35.811Z,37.06
2022-12-24T08:37:59.921Z,37.05
2022-12-24T08:44:21.464Z,36.87
2022-12-24T08:50:48.770Z,36.74
2022-12-24T08:57:13.440Z,36.88
2022-12-24T09:03:42.681Z,36.99
2022-12-24T09:10:09.474Z,36.89
2022-12-24T09:16:33.539Z,36.98
2022-12-24T09:22:57.872Z,36.83
2022-12-24T09:29:24.181Z,37.07
2022-12-24T09:35:51.722Z,36.88
2022-12-24T09:42:26.813Z,36.99
2022-12-24T09:49:30.380Z,36.94
2022-12-24T09:56:47.563Z,37
2022-12-24T10:03:35.625Z,37.01
2022-12-24T10:10:29.926Z,36.98
2022-12-24T10:17:41.885Z,37.15
2022-12-24T10:24:59.736Z,36.92
2022-12-24T10:31:51.976Z,37.04
2022-12-24T10:38:36.474Z,36.93
2022-12-24T10:45:14.609Z,36.93
2022-12-24T10:52:24.146Z,36.91
2022-12-24T10:59:21.602Z,36.95
2022-12-24T11:06:11.846Z,36.88
2022-12-24T11:13:36.640Z,36.83
2022-12-24T11:20:06.583Z,36.82
2022-12-24T11:26:49.587Z,37.09
2022-12-24T11:33:33.967Z,36.92
2022-12-24T11:40:39.859Z,36.94
2022-12-24T11:47:23.932Z,36.82
2022-12-24T11:54:25.590Z,36.73
2022-12-24T12:01:27.936Z,36.84
2022-12-24T12:08:15.863Z,37.02
2022-12-24T12:14:57.505Z,37.09
2022-12-24T12:22:08.759Z,36.99
2022-12-24T12:29:11.812Z,37.06
2022-12-24T12:36:13.606Z,36.89
2022-12-24T12:42:57.965Z,37
2022-12-24T12:49:59.958Z,37.07
2022-12-24T12:57:00.527Z,37.23
2022-12-24T13:04:07.636Z,37.14
2022-12-24T13:11:05.951Z,37.07
2022-12-24T13:18:04.881Z,37.17
2022-12-24T13:24:52.810Z,37.01
2022-12-24T13:31:38.054Z,36.89
2022-12-24T13:38:30.653Z,36.99
2022-12-24T13:45:22.452Z,37.02
2022-12-24T13:52:05.988Z,36.92
2022-12-24T13:58:55.657Z,37.03
2022-12-24T14:05:45.520Z,37.03
2022-12-24T14:12:36.485Z,36.93
2022-12-24T14:19:25.186Z,37.04
2022-12-24T14:26:22.795Z,36.93
2022-12-24T14:33:13.647Z,36.97
2022-12-24T14:40:05.545Z,36.98
2022-12-24T14:47:17.614Z,37.19
2022-12-24T14:54:30.631Z,36.89
2022-12-24T15:01:20.170Z,37.01
2022-12-24T15:08:09.123Z,36.94
2022-12-24T15:14:55.805Z,36.93
2022-12-24T15:21:53.192Z,36.97
2022-12-24T15:28:39.759Z,36.87
2022-12-24T15:35:14.673Z,36.95
2022-12-24T15:41:57.711Z,36.92
2022-12-24T15:48:50.678Z,37.03
2022-12-24T15:55:36.967Z,36.94
2022-12-24T16:02:25.649Z,36.9
2022-12-24T16:09:16.610Z,36.99
2022-12-24T16:15:58.138Z,36.97
2022-12-24T16:22:39.966Z,37.01
2022-12-24T16:29:17.676Z,37.04
2022-12-24T16:35:55.653Z,36.96
2022-12-24T16:42:19.875Z,37.12
2022-12-24T16:48:59.932Z,36.84
2022-12-24T16:55:27.712Z,37
2022-12-24T17:01:52.447Z,36.91
2022-12-24T17:08:21.003Z,37
2022-12-24T17:14:47.841Z,37.05
2022-12-24T17:21:20.595Z,36.97
2022-12-24T17:27:48.212Z,37
2022-12-24T17:34:22.971Z,36.79
2022-12-24T17:40:49.211Z,36.92
2022-12-24T17:47:26.695Z,37.04
2022-12-24T17:53:56.788Z,36.94
2022-12-24T18:00:33.100Z,37.01
2022-12-24T18:07:09.183Z,36.89
2022-12-24T18:13:39.863Z,37.02
2022-12-24T18:20:16.121Z,36.99
2022-12-24T18:26:38.893Z,36.85
2022-12-24T18:33:01.639Z,37.04
2022-12-24T18:39:30.926Z,37.14
2022-12-24T18:45:56.395Z,37.07
2022-12-24T18:52:25.225Z,36.98
2022-12-24T18:58:48.777Z,37.05
2022-12-24T19:05:18.845Z,36.94
2022-12-24T19:11:50.879Z,37.02
2022-12-24T19:18:21.112Z,37.02
2022-12-24T19:24:44.173Z,36.85
2022-12-24T19:31:12.947Z,37.03
2022-12-24T19:37:47.671Z,36.95
2022-12-24T19:44:25.581Z,36.96
2022-12-24T19:50:58.866Z,37.09
2022-12-24T19:57:20.301Z,37.12
2022-12-24T20:03:50.719Z,37.1
2022-12-24T20:10:16.127Z,37.02
2022-12-24T20:16:42.506Z,37.11
2022-12-24T20:23:08.076Z,37.03
2022-12-24T20:29:40.175Z,37.14
2022-12-24T20:36:12.304Z,37.09
2022-12-24T20:42:39.703Z,37.22
2022-12-24T20:49:01.138Z,37.18
2022-12-24T20:55:25.750Z,37.19
2022-12-24T21:01:54.378Z,37.22
2022-12-24T21:08:17.726Z,37.22
2022-12-24T21:14:51.558Z,37.4
2022-12-24T21:21:18.874Z,37.42
2022-12-24T21:27:48.347Z,37.47
2022-12-24T21:34:16.968Z,37.46
2022-12-24T21:40:52.162Z,37.57
2022-12-24T21:47:25.785Z,37.32
2022-12-24T21:53:46.614Z,37.4
2022-12-24T22:00:12.327Z,37.49
2022-12-24T22:06:41.140Z,37.52
2022-12-24T22:13:13.401Z,37.4
2022-12-24T22:19:41.758Z,37.47
2022-12-24T22:26:07.847Z,37.48
2022-12-24T22:32:39.906Z,37.6
2022-12-24T22:39:03.874Z,37.5
2022-12-24T22:45:36.103Z,37.48
2022-12-24T22:52:01.593Z,37.56
2022-12-24T22:58:31.980Z,37.44
2022-12-24T23:05:06.226Z,37.46
2022-12-24T23:11:46.227Z,37.53
2022-12-24T23:18:13.195Z,37.52
2022-12-24T23:24:41.448Z,37.43
2022-12-24T23:31:11.316Z,37.29
2022-12-24T23:37:43.738Z,36.84
2022-12-24T23:44:10.241Z,37.34
2022-12-24T23:50:35.945Z,37.44
2022-12-24T23:57:02.253Z,37.48
